Time;durP1;ratioP1;P1;durP2;ratioP2;P2;SDS_P1;SDS_P2;PMS_P1;PMS_P2;Temp;Humidity;BMP_temperature;BMP_pressure;BME280_temperature;BME280_humidity;BME280_pressure;Samples;Min_cycle;Max_cycle;Signal;HPM_P1;HPM_P2
2021/11/28 00:02:18;;;;;;;;;;;;;;;;;;5083469;28;20445;-67
2021/11/28 00:04:46;;;;;;;;;;;;;;;;;;5086816;28;19931;-68
2021/11/28 00:07:25;;;;;;;;;;;;;;;;;;5083118;28;20007;-68
2021/11/28 00:10:08;;;;;;;;;;;;;;;;;;5082736;28;19931;-67
2021/11/28 00:12:46;;;;;;;;;;;;;;;;;;5082000;28;20464;-68
2021/11/28 00:15:13;;;;;;;;;;;;;;;;;;5083410;28;19979;-68
2021/11/28 00:17:40;;;;;;;;;;;;;;;;;;5078415;28;20296;-68
2021/11/28 00:20:08;;;;;;;;;;;;;;;;;;5076231;28;19928;-68
2021/11/28 00:22:37;;;;;;;;;;;;;;;;;;5076828;28;20381;-67
2021/11/28 00:25:04;;;;;;;;;;;;;;;;;;5085268;28;20515;-67
2021/11/28 00:27:31;;;;;;;;;;;;;;;;;;5085959;28;19993;-67
2021/11/28 00:29:58;;;;;;;;;;;;;;;;;;5085021;28;19924;-68
2021/11/28 00:32:25;;;;;;;;;;;;;;;;;;5086580;28;19960;-68
2021/11/28 00:34:52;;;;;;;;;;;;;;;;;;5085219;28;19924;-68
2021/11/28 00:37:19;;;;;;;;;;;;;;;;;;5084986;28;20537;-66
2021/11/28 00:39:47;;;;;;;;;;;;;;;;;;5083056;28;19924;-67
2021/11/28 00:42:14;;;;;;;;;;;;;;;;;;5083587;28;21307;-67
2021/11/28 00:44:41;;;;;;;;;;;;;;;;;;5081557;28;19924;-68
2021/11/28 00:47:08;;;;;;;;;;;;;;;;;;5086586;28;20475;-68
2021/11/28 00:49:37;;;;;;;;;;;;;;;;;;5081370;28;19924;-67
2021/11/28 00:52:04;;;;;;;;;;;;;;;;;;5082339;28;19931;-68
2021/11/28 00:54:31;;;;;;;;;;;;;;;;;;5087862;28;19938;-67
2021/11/28 00:56:58;;;;;;;;;;;;;;;;;;5078110;28;20007;-68
2021/11/28 00:59:25;;;;;;;;;;;;;;;;;;5086195;28;19924;-68
2021/11/28 01:01:52;;;;;;;;;;;;;;;;;;5086493;28;19925;-67
2021/11/28 01:04:19;;;;;;;;;;;;;;;;;;5083177;28;19975;-68
2021/11/28 01:06:46;;;;;;;;;;;;;;;;;;5079396;28;19932;-68
2021/11/28 01:09:13;;;;;;;;;;;;;;;;;;5077514;28;20304;-68
2021/11/28 01:11:40;;;;;;;;;;;;;;;;;;5081952;28;20003;-67
2021/11/28 01:14:07;;;;;;;;;;;;;;;;;;5080999;28;19932;-68
2021/11/28 01:16:34;;;;;;;;;;;;;;;;;;5087086;28;19970;-69
2021/11/28 01:19:01;;;;;;;;;;;;;;;;;;5084696;28;19931;-68
2021/11/28 01:21:28;;;;;;;;;;;;;;;;;;5087119;28;20031;-67
2021/11/28 01:23:55;;;;;;;;;;;;;;;;;;5080099;28;20028;-68
2021/11/28 01:26:22;;;;;;;;;;;;;;;;;;5079381;28;19924;-68
2021/11/28 01:28:49;;;;;;;;;;;;;;;;;;5084961;28;20276;-68
2021/11/28 01:31:16;;;;;;;;;;;;;;;;;;5078847;28;19940;-67
2021/11/28 01:33:43;;;;;;;;;;;;;;;;;;5085939;28;20272;-68
2021/11/28 01:36:10;;;;;;;;;;;;;;;;;;5075910;28;19931;-67
2021/11/28 01:38:37;;;;;;;;;;;;;;;;;;5081863;28;19924;-68
2021/11/28 01:41:04;;;;;;;;;;;;;;;;;;5079140;28;19931;-68
2021/11/28 01:43:31;;;;;;;;;;;;;;;;;;5080505;28;20369;-67
2021/11/28 01:45:58;;;;;;;;;;;;;;;;;;5102201;22;19930;-68
2021/11/28 01:48:25;;;;;;;;;;;;;;;;;;5062946;28;19925;-65
2021/11/28 01:50:52;;;;;;;;;;;;;;;;;;5070993;28;19925;-66
2021/11/28 01:53:19;;;;;;;;;;;;;;;;;;5070020;28;19935;-64
2021/11/28 01:55:46;;;;;;;;;;;;;;;;;;5067966;28;20543;-65
2021/11/28 01:58:13;;;;;;;;;;;;;;;;;;5070798;28;19929;-65
2021/11/28 02:00:40;;;;;;;;;;;;;;;;;;5066848;28;19925;-68
2021/11/28 02:03:07;;;;;;;;;;;;;;;;;;5068720;28;20303;-63
2021/11/28 02:05:34;;;;;;;;;;;;;;;;;;5069774;28;19924;-63
2021/11/28 02:08:01;;;;;;;;;;;;;;;;;;5065732;28;19925;-64
2021/11/28 02:10:28;;;;;;;;;;;;;;;;;;5069940;28;20380;-63
2021/11/28 02:12:55;;;;;;;;;;;;;;;;;;5068786;28;20292;-65
2021/11/28 02:15:22;;;;;;;;;;;;;;;;;;5072629;28;20011;-65
2021/11/28 02:17:49;;;;;;;;;;;;;;;;;;5066096;28;20015;-66
2021/11/28 02:20:16;;;;;;;;;;;;;;;;;;5065002;28;20311;-63
2021/11/28 02:22:43;;;;;;;;;;;;;;;;;;5063020;28;20155;-63
2021/11/28 02:25:10;;;;;;;;;;;;;;;;;;5067431;28;20146;-64
2021/11/28 02:27:37;;;;;;;;;;;;;;;;;;5064118;28;20317;-63
2021/11/28 02:30:04;;;;;;;;;;;;;;;;;;5062457;28;20019;-64
2021/11/28 02:32:31;;;;;;;;;;;;;;;;;;5065585;28;20376;-66
2021/11/28 02:34:58;;;;;;;;;;;;;;;;;;5071449;28;19924;-65
2021/11/28 02:37:25;;;;;;;;;;;;;;;;;;5065357;28;19925;-66
2021/11/28 02:39:53;;;;;;;;;;;;;;;;;;5069295;28;19924;-65
2021/11/28 02:42:20;;;;;;;;;;;;;;;;;;5067485;28;19933;-64
2021/11/28 02:44:47;;;;;;;;;;;;;;;;;;5067409;28;21891;-65
2021/11/28 02:47:14;;;;;;;;;;;;;;;;;;5067858;28;19924;-65
2021/11/28 02:49:41;;;;;;;;;;;;;;;;;;5065793;28;19932;-64
2021/11/28 02:52:08;;;;;;;;;;;;;;;;;;5071482;28;19925;-64
2021/11/28 02:54:35;;;;;;;;;;;;;;;;;;5066825;28;20345;-63
2021/11/28 02:57:02;;;;;;;;;;;;;;;;;;5064502;28;20305;-64
2021/11/28 02:59:29;;;;;;;;;;;;;;;;;;5069467;28;20007;-64
2021/11/28 03:01:56;;;;;;;;;;;;;;;;;;5062171;28;19924;-64
2021/11/28 03:04:23;;;;;;;;;;;;;;;;;;5070801;28;19925;-64
2021/11/28 03:06:50;;;;;;;;;;;;;;;;;;5065297;28;19932;-64
2021/11/28 03:09:17;;;;;;;;;;;;;;;;;;5065851;28;20088;-67
2021/11/28 03:11:44;;;;;;;;;;;;;;;;;;5066068;28;20392;-64
2021/11/28 03:14:13;;;;;;;;;;;;;;;;;;5065124;28;19935;-64
2021/11/28 03:16:40;;;;;;;;;;;;;;;;;;5069114;28;19929;-66
2021/11/28 03:19:07;;;;;;;;;;;;;;;;;;5068940;28;19928;-65
2021/11/28 03:21:34;;;;;;;;;;;;;;;;;;5062528;28;19931;-64
2021/11/28 03:24:01;;;;;;;;;;;;;;;;;;5061192;28;19940;-64
2021/11/28 03:26:28;;;;;;;;;;;;;;;;;;5068084;28;19932;-64
2021/11/28 03:28:55;;;;;;;;;;;;;;;;;;5066278;28;20067;-68
2021/11/28 03:31:22;;;;;;;;;;;;;;;;;;5069448;28;19936;-64
2021/11/28 03:33:49;;;;;;;;;;;;;;;;;;5064621;28;19924;-64
2021/11/28 03:36:17;;;;;;;;;;;;;;;;;;5067511;28;20324;-63
2021/11/28 03:38:44;;;;;;;;;;;;;;;;;;5069927;28;20395;-64
2021/11/28 03:41:11;;;;;;;;;;;;;;;;;;5069625;28;19924;-65
2021/11/28 03:43:38;;;;;;;;;;;;;;;;;;5069819;28;19936;-64
2021/11/28 03:46:05;;;;;;;;;;;;;;;;;;5070892;28;20388;-63
2021/11/28 03:48:32;;;;;;;;;;;;;;;;;;5071927;28;19944;-66
2021/11/28 03:50:58;;;;;;;;;;;;;;;;;;5067657;28;19924;-64
2021/11/28 03:53:25;;;;;;;;;;;;;;;;;;5065165;28;19939;-63
2021/11/28 03:55:53;;;;;;;;;;;;;;;;;;5068648;28;19932;-64
2021/11/28 03:58:20;;;;;;;;;;;;;;;;;;5069770;28;20392;-64
2021/11/28 04:00:47;;;;;;;;;;;;;;;;;;5070134;28;19948;-64
2021/11/28 04:03:14;;;;;;;;;;;;;;;;;;5069462;28;20415;-65
2021/11/28 04:05:41;;;;;;;;;;;;;;;;;;5067205;28;20300;-63
2021/11/28 04:08:08;;;;;;;;;;;;;;;;;;5066559;28;19925;-64
2021/11/28 04:10:35;;;;;;;;;;;;;;;;;;5060631;28;19924;-64
2021/11/28 04:13:02;;;;;;;;;;;;;;;;;;5057600;28;19931;-65
2021/11/28 04:15:29;;;;;;;;;;;;;;;;;;5065900;28;19924;-65
2021/11/28 04:17:56;;;;;;;;;;;;;;;;;;5068408;28;20412;-62
2021/11/28 04:20:23;;;;;;;;;;;;;;;;;;5059394;28;19924;-63
2021/11/28 04:22:50;;;;;;;;;;;;;;;;;;5059875;28;19925;-63
2021/11/28 04:25:17;;;;;;;;;;;;;;;;;;5052067;28;20208;-63
2021/11/28 04:27:44;;;;;;;;;;;;;;;;;;5054267;28;20405;-68
2021/11/28 04:30:11;;;;;;;;;;;;;;;;;;5068603;28;19924;-63
2021/11/28 04:32:39;;;;;;;;;;;3.60;99.90;;;;;;5069369;28;19928;-63
2021/11/28 04:35:06;;;;;;;;;;;3.80;99.90;;;;;;5064353;28;19941;-63
2021/11/28 04:37:33;;;;;;;;;;;3.80;99.90;;;;;;5060485;28;19947;-64
2021/11/28 04:40:00;;;;;;;;;;;3.80;99.90;;;;;;5064368;28;20014;-63
2021/11/28 04:42:28;;;;;;;;;;;3.70;99.90;;;;;;5062896;28;19924;-64
2021/11/28 04:44:54;;;;;;;;;;;3.50;99.90;;;;;;5063180;28;19983;-63
2021/11/28 04:47:21;;;;;;;;;;;3.40;99.90;;;;;;5063177;28;20368;-64
2021/11/28 04:49:49;;;;;;;;;;;3.30;99.90;;;;;;5068223;28;19928;-64
2021/11/28 04:52:16;;;;;;;;;;;3.20;99.90;;;;;;5060871;28;19924;-64
2021/11/28 04:54:42;;;;;;;;;;;3.20;99.90;;;;;;5057811;28;19932;-66
2021/11/28 04:57:09;;;;;;;;;;;3.00;99.90;;;;;;5064451;28;19936;-66
2021/11/28 04:59:36;;;;;;;;;;;3.00;99.90;;;;;;5063265;28;19925;-65
2021/11/28 05:02:03;;;;;;;;;;;3.00;99.90;;;;;;5055696;28;19933;-65
2021/11/28 05:04:30;;;;;;;;;;;3.10;99.90;;;;;;5061018;28;20029;-65
2021/11/28 05:06:58;;;;;;;;;;;3.10;99.90;;;;;;5065809;28;19924;-65
2021/11/28 05:09:25;;;;;;;;;;;3.20;99.90;;;;;;5061896;28;19924;-65
2021/11/28 05:11:51;;;;;;;;;;;3.30;99.90;;;;;;5065464;28;19925;-64
2021/11/28 05:14:18;;;;;;;;;;;3.30;99.90;;;;;;5062436;28;19928;-65
2021/11/28 05:16:44;;;;;;;;;;;3.10;99.90;;;;;;5059904;28;19931;-65
2021/11/28 05:19:11;;;;;;;;;;;3.10;99.90;;;;;;5067733;28;19984;-63
2021/11/28 05:21:38;;;;;;;;;;;3.20;99.90;;;;;;5060839;28;19935;-66
2021/11/28 05:24:06;;;;;;;;;;;3.30;99.90;;;;;;5057846;28;19925;-63
2021/11/28 05:26:33;;;;;;;;;;;3.40;99.90;;;;;;5066340;28;19924;-64
2021/11/28 05:28:59;;;;;;;;;;;3.40;99.90;;;;;;5066119;28;19979;-64
2021/11/28 05:31:26;;;;;;;;;;;3.40;99.90;;;;;;5065554;28;20427;-64
2021/11/28 05:33:54;;;;;;;;;;;3.40;99.90;;;;;;5065929;28;20297;-63
2021/11/28 05:36:21;;;;;;;;;;;3.30;99.90;;;;;;5062444;28;19932;-64
2021/11/28 05:38:48;;;;;;;;;;;3.20;99.90;;;;;;5064877;28;19928;-64
2021/11/28 05:41:16;;;;;;;;;;;3.20;99.90;;;;;;5069470;28;19930;-67
2021/11/28 05:43:45;;;;;;;;;;;3.30;99.90;;;;;;5067394;28;20020;-65
2021/11/28 05:46:12;;;;;;;;;;;3.20;99.90;;;;;;5071283;28;20292;-64
2021/11/28 05:48:38;;;;;;;;;;;3.30;99.90;;;;;;5072648;28;20522;-64
2021/11/28 05:51:05;;;;;;;;;;;3.30;99.90;;;;;;5072731;28;19925;-64
2021/11/28 05:53:32;;;;;;;;;;;3.20;99.90;;;;;;5071383;28;19932;-64
2021/11/28 05:55:59;;;;;;;;;;;3.10;99.90;;;;;;5071288;28;19931;-65
2021/11/28 05:58:27;;;;;;;;;;;3.10;99.90;;;;;;5069649;28;19932;-63
2021/11/28 06:00:54;;;;;;;;;;;3.00;99.90;;;;;;5068964;28;19924;-61
2021/11/28 06:03:20;;;;;;;;;;;3.10;99.90;;;;;;5064586;28;19925;-63
2021/11/28 06:05:48;;;;;;;;;;;3.00;99.90;;;;;;5063571;28;20427;-67
2021/11/28 06:08:14;;;;;;;;;;;3.10;99.90;;;;;;5067900;28;20011;-66
2021/11/28 06:10:41;;;;;;;;;;;3.00;99.90;;;;;;5066263;28;19936;-64
2021/11/28 06:13:08;;;;;;;;;;;3.00;99.90;;;;;;5070633;28;20015;-65
2021/11/28 06:15:36;;;;;;;;;;;3.10;99.90;;;;;;5070108;28;19924;-64
2021/11/28 06:18:02;;;;;;;;;;;3.10;99.90;;;;;;5064245;28;20273;-64
2021/11/28 06:20:29;;;;;;;;;;;3.10;99.90;;;;;;5070116;28;20384;-65
2021/11/28 06:22:56;;;;;;;;;;;3.10;99.90;;;;;;5070473;28;19931;-65
2021/11/28 06:25:22;;;;;;;;;;;3.10;99.90;;;;;;5070480;28;19986;-64
2021/11/28 06:27:49;;;;;;;;;;;3.10;99.90;;;;;;5070961;28;19931;-64
2021/11/28 06:30:16;;;;;;;;;;;3.10;99.90;;;;;;5070781;28;20045;-65
2021/11/28 06:32:44;;;;;;;;;;;3.10;99.90;;;;;;5068337;28;19925;-64
2021/11/28 06:35:11;;;;;;;;;;;;;;;;;;5067170;28;19928;-65
2021/11/28 06:37:38;;;;;;;;;;;;;;;;;;5073324;28;19928;-64
2021/11/28 06:40:05;;;;;;;;;;;;;;;;;;5065832;28;19925;-64
2021/11/28 06:42:32;;;;;;;;;;;;;;;;;;5069857;28;20292;-64
2021/11/28 06:44:59;;;;;;;;;;;;;;;;;;5060110;28;20037;-66
2021/11/28 06:47:26;;;;;;;;;;;;;;;;;;5064895;28;20266;-64
2021/11/28 06:49:53;;;;;;;;;;;;;;;;;;5069982;28;19925;-66
2021/11/28 06:52:20;;;;;;;;;;;;;;;;;;5066002;28;19925;-66
2021/11/28 06:54:47;;;;;;;;;;;;;;;;;;5070541;28;19925;-64
2021/11/28 06:57:14;;;;;;;;;;;;;;;;;;5065837;28;19958;-64
2021/11/28 06:59:40;;;;;;;;;;;;;;;;;;5071742;28;20319;-64
2021/11/28 07:02:07;;;;;;;;;;;;;;;;;;5064078;28;19935;-65
2021/11/28 07:04:34;;;;;;;;;;;;;;;;;;5064795;28;19974;-65
2021/11/28 07:07:01;;;;;;;;;;;;;;;;;;5064284;28;20440;-63
2021/11/28 07:09:29;;;;;;;;;;;;;;;;;;5063387;28;19929;-64
2021/11/28 07:11:56;;;;;;;;;;;;;;;;;;5062509;28;19924;-68
2021/11/28 07:14:23;;;;;;;;;;;;;;;;;;5065553;28;19931;-66
2021/11/28 07:16:51;;;;;;;;;;;;;;;;;;5068971;28;19928;-63
2021/11/28 07:19:18;;;;;;;;;;;;;;;;;;5065157;28;19968;-66
2021/11/28 07:21:45;;;;;;;;;;;;;;;;;;5061794;28;19925;-68
2021/11/28 07:24:11;;;;;;;;;;;;;;;;;;5063855;28;20296;-64
2021/11/28 07:26:38;;;;;;;;;;;;;;;;;;5070259;28;20316;-65
2021/11/28 07:29:05;;;;;;;;;;;;;;;;;;5069969;28;20392;-64
2021/11/28 07:31:32;;;;;;;;;;;;;;;;;;5064159;28;19924;-65
2021/11/28 07:33:59;;;;;;;;;;;;;;;;;;5063089;28;19924;-65
2021/11/28 07:36:27;;;;;;;;;;;3.80;99.90;;;;;;5068360;28;19924;-65
2021/11/28 07:38:54;;;;;;;;;;;3.80;99.90;;;;;;5063112;28;19925;-65
2021/11/28 07:41:20;;;;;;;;;;;3.90;99.90;;;;;;5068136;28;19925;-65
2021/11/28 07:43:47;;;;;;;;;;;4.00;99.90;;;;;;5059640;28;19929;-65
2021/11/28 07:46:14;;;;;;;;;;;4.00;99.90;;;;;;5097262;22;20390;-67
2021/11/28 07:48:41;;;;;;;;;;;4.00;99.90;;;;;;5103204;28;19928;-66
2021/11/28 07:51:08;;;;;;;;;;;4.00;99.90;;;;;;5106714;28;19931;-65
2021/11/28 07:53:38;;;;;;;;;;;4.10;99.90;;;;;;5114811;28;19931;-64
2021/11/28 07:56:05;;;;;;;;;;;4.10;99.90;;;;;;5099742;28;19927;-66
2021/11/28 07:58:31;;;;;;;;;;;4.10;99.90;;;;;;5100476;28;19930;-67
2021/11/28 08:00:58;;;;;;;;;;;4.20;99.90;;;;;;5101830;28;19928;-67
2021/11/28 08:03:24;;;;;;;;;;;4.10;99.90;;;;;;5098189;28;19924;-66
2021/11/28 08:05:53;;;;;;;;;;;4.00;99.90;;;;;;5095380;27;19924;-67
2021/11/28 08:08:19;;;;;;;;;;;3.90;99.90;;;;;;5105165;28;20462;-67
2021/11/28 08:10:47;;;;;;;;;;;4.00;99.90;;;;;;5106225;28;19928;-68
2021/11/28 08:13:14;;;;;;;;;;;4.00;99.90;;;;;;5098669;28;19935;-67
2021/11/28 08:15:41;;;;;;;;;;;4.00;99.90;;;;;;5097894;28;20005;-67
2021/11/28 08:18:07;;;;;;;;;;;4.10;99.90;;;;;;5094780;28;19938;-67
2021/11/28 08:20:34;;;;;;;;;;;4.00;99.90;;;;;;5099895;28;19931;-67
2021/11/28 08:23:01;;;;;;;;;;;4.00;99.90;;;;;;5115548;28;19931;-67
2021/11/28 08:25:28;;;;;;;;;;;4.00;99.90;;;;;;5103817;28;19931;-67
2021/11/28 08:27:56;;;;;;;;;;;4.10;99.90;;;;;;5105070;28;19930;-66
2021/11/28 08:30:22;;;;;;;;;;;4.10;99.90;;;;;;5104946;28;19931;-67
2021/11/28 08:32:49;;;;;;;;;;;4.00;99.90;;;;;;5106826;28;19926;-65
2021/11/28 08:35:16;;;;;;;;;;;4.00;99.90;;;;;;5104941;28;19928;-67
2021/11/28 08:37:43;;;;;;;;;;;4.10;99.90;;;;;;5101763;28;19924;-67
2021/11/28 08:40:11;;;;;;;;;;;4.10;99.90;;;;;;5106577;28;19912;-65
2021/11/28 08:42:38;;;;;;;;;;;4.20;99.90;;;;;;5117369;28;19923;-66
2021/11/28 08:45:07;;;;;;;;;;;4.20;99.90;;;;;;5103600;28;19931;-67
2021/11/28 08:47:34;;;;;;;;;;;4.30;99.90;;;;;;5103498;28;19924;-67
2021/11/28 08:50:01;;;;;;;;;;;4.30;99.90;;;;;;5100814;28;20317;-68
2021/11/28 08:52:28;;;;;;;;;;;4.20;99.90;;;;;;5106211;28;19924;-68
2021/11/28 08:54:54;;;;;;;;;;;4.10;99.90;;;;;;5099970;28;20304;-67
2021/11/28 08:57:21;;;;;;;;;;;4.10;99.90;;;;;;5108474;28;19923;-67
2021/11/28 08:59:49;;;;;;;;;;;4.10;99.90;;;;;;5101663;28;20008;-67
2021/11/28 09:02:18;;;;;;;;;;;4.10;99.90;;;;;;5102754;28;19928;-65
2021/11/28 09:04:44;;;;;;;;;;;4.10;99.90;;;;;;5101716;28;19923;-68
2021/11/28 09:07:11;;;;;;;;;;;4.10;99.90;;;;;;5105459;28;19927;-67
2021/11/28 09:09:38;;;;;;;;;;;4.10;99.90;;;;;;5105202;28;19924;-67
2021/11/28 09:12:05;;;;;;;;;;;4.10;99.90;;;;;;5104479;28;19923;-66
2021/11/28 09:14:34;;;;;;;;;;;4.20;99.90;;;;;;5105429;28;19930;-67
2021/11/28 09:17:00;;;;;;;;;;;4.20;99.90;;;;;;5102836;28;19924;-68
2021/11/28 09:19:33;;;;;;;;;;;4.20;99.90;;;;;;5103347;28;19923;-67
2021/11/28 09:22:02;;;;;;;;;;;4.20;99.90;;;;;;5106001;28;19924;-68
2021/11/28 09:27:13;;;;;;;;;;;4.40;99.90;;;;;;5105662;28;19924;-67
2021/11/28 09:29:41;;;;;;;;;;;4.50;99.90;;;;;;5113723;28;19946;-66
2021/11/28 09:32:08;;;;;;;;;;;4.50;99.90;;;;;;5118202;28;19930;-66
2021/11/28 09:34:36;;;;;;;;;;;4.40;99.90;;;;;;5103624;28;20397;-66
2021/11/28 09:37:03;;;;;;;;;;;4.30;99.90;;;;;;5101570;28;19930;-66
2021/11/28 09:39:29;;;;;;;;;;;4.30;99.90;;;;;;5104260;28;19924;-66
2021/11/28 09:41:58;;;;;;;;;;;4.30;99.90;;;;;;5106293;28;19939;-67
2021/11/28 09:44:27;;;;;;;;;;;4.30;99.90;;;;;;5102231;28;19923;-66
2021/11/28 09:46:55;;;;;;;;;;;4.30;99.90;;;;;;5104385;28;20411;-67
2021/11/28 09:49:22;;;;;;;;;;;;;;;;;;5102660;28;19923;-66
2021/11/28 09:51:49;;;;;;;;;;;;;;;;;;5104181;28;19924;-66
2021/11/28 09:54:16;;;;;;;;;;;;;;;;;;5103542;28;19924;-67
2021/11/28 09:56:43;;;;;;;;;;;;;;;;;;5103330;28;19928;-66
2021/11/28 09:59:10;;;;;;;;;;;;;;;;;;5103144;28;20347;-67
2021/11/28 10:01:37;;;;;;;;;;;;;;;;;;5104555;28;19928;-67
2021/11/28 10:04:04;;;;;;;;;;;;;;;;;;5105182;28;19924;-67
2021/11/28 10:06:31;;;;;;;;;;;;;;;;;;5106645;28;20002;-67
2021/11/28 10:08:59;;;;;;;;;;;;;;;;;;5103264;28;20390;-66
2021/11/28 10:11:26;;;;;;;;;;;;;;;;;;5102507;28;20368;-67
2021/11/28 10:13:53;;;;;;;;;;;;;;;;;;5105689;27;20402;-68
2021/11/28 10:16:20;;;;;;;;;;;;;;;;;;5105826;27;19930;-68
2021/11/28 10:18:47;;;;;;;;;;;;;;;;;;5105033;28;19924;-67
2021/11/28 10:21:14;;;;;;;;;;;;;;;;;;5103608;28;19924;-67
2021/11/28 10:23:41;;;;;;;;;;;;;;;;;;5104886;28;19927;-67
2021/11/28 10:26:08;;;;;;;;;;;;;;;;;;5106690;28;19924;-67
2021/11/28 10:28:35;;;;;;;;;;;;;;;;;;5106259;27;19931;-66
2021/11/28 10:31:04;;;;;;;;;;;;;;;;;;5110205;28;20014;-67
2021/11/28 10:33:31;;;;;;;;;;;;;;;;;;5105618;28;19930;-66
2021/11/28 10:35:58;;;;;;;;;;;;;;;;;;5109283;28;20326;-66
2021/11/28 10:38:25;;;;;;;;;;;;;;;;;;5110532;28;19924;-65
2021/11/28 10:40:52;;;;;;;;;;;;;;;;;;5104680;28;19931;-67
2021/11/28 10:43:19;;;;;;;;;;;;;;;;;;5104114;28;20509;-66
2021/11/28 10:45:49;;;;;;;;;;;;;;;;;;5101216;28;19928;-66
2021/11/28 10:48:16;;;;;;;;;;;;;;;;;;5103673;28;19932;-66
2021/11/28 10:50:43;;;;;;;;;;;;;;;;;;5110022;28;19931;-67
2021/11/28 10:53:10;;;;;;;;;;;;;;;;;;5107146;28;20299;-65
2021/11/28 10:55:38;;;;;;;;;;;;;;;;;;5110233;28;19935;-66
2021/11/28 10:58:06;;;;;;;;;;;;;;;;;;5110704;28;19924;-67
2021/11/28 11:00:33;;;;;;;;;;;;;;;;;;5101725;27;19924;-65
2021/11/28 11:03:00;;;;;;;;;;;;;;;;;;5106822;28;19938;-67
2021/11/28 11:05:29;;;;;;;;;;;;;;;;;;5108369;28;19974;-67
2021/11/28 11:07:56;;;;;;;;;;;;;;;;;;5105633;28;20027;-66
2021/11/28 11:10:23;;;;;;;;;;;;;;;;;;5099661;28;20019;-67
2021/11/28 11:12:50;;;;;;;;;;;;;;;;;;5102819;28;19985;-66
2021/11/28 11:15:17;;;;;;;;;;;;;;;;;;5100631;28;20414;-66
2021/11/28 11:17:44;;;;;;;;;;;;;;;;;;5104743;28;19930;-66
2021/11/28 11:20:11;;;;;;;;;;;;;;;;;;5103743;28;19923;-66
2021/11/28 11:22:39;;;;;;;;;;;;;;;;;;5105657;28;19930;-66
2021/11/28 11:25:06;;;;;;;;;;;;;;;;;;5106187;28;19932;-66
2021/11/28 11:27:33;;;;;;;;;;;;;;;;;;5105462;27;20368;-67
2021/11/28 11:30:01;;;;;;;;;;;;;;;;;;5105779;28;19932;-67
2021/11/28 11:32:28;;;;;;;;;;;;;;;;;;5106253;28;19924;-66
2021/11/28 11:34:55;;;;;;;;;;;;;;;;;;5109139;28;19924;-66
2021/11/28 11:37:24;;;;;;;;;;;;;;;;;;5107280;28;19934;-66
2021/11/28 11:39:51;;;;;;;;;;;;;;;;;;5104142;28;19931;-66
2021/11/28 11:42:18;;;;;;;;;;;;;;;;;;5108942;28;20015;-67
2021/11/28 11:44:45;;;;;;;;;;;;;;;;;;5101331;28;19930;-67
2021/11/28 11:47:12;;;;;;;;;;;;;;;;;;5104232;28;19928;-67
2021/11/28 11:49:39;;;;;;;;;;;;;;;;;;5105274;28;20372;-67
2021/11/28 11:52:06;;;;;;;;;;;;;;;;;;5107940;28;19930;-67
2021/11/28 11:54:34;;;;;;;;;;;;;;;;;;5111333;28;19943;-66
2021/11/28 11:57:01;;;;;;;;;;;;;;;;;;5104587;28;19924;-67
2021/11/28 11:59:28;;;;;;;;;;;;;;;;;;5103238;28;19923;-66
2021/11/28 12:01:54;;;;;;;;;;;;;;;;;;5104341;28;19924;-67
2021/11/28 12:04:21;;;;;;;;;;;;;;;;;;5107410;28;20407;-67
2021/11/28 12:06:52;;;;;;;;;;;;;;;;;;5107588;28;19927;-66
2021/11/28 12:09:18;;;;;;;;;;;;;;;;;;5100673;28;20283;-67
2021/11/28 12:11:45;;;;;;;;;;;;;;;;;;5104764;28;20402;-67
2021/11/28 12:14:12;;;;;;;;;;;;;;;;;;5102624;28;19932;-68
2021/11/28 12:16:39;;;;;;;;;;;;;;;;;;5103150;28;20010;-68
2021/11/28 12:19:07;;;;;;;;;;;;;;;;;;5100251;28;20408;-68
2021/11/28 12:21:36;;;;;;;;;;;;;;;;;;5104450;28;19932;-67
2021/11/28 12:24:05;;;;;;;;;;;;;;;;;;5104462;28;19931;-67
2021/11/28 12:26:32;;;;;;;;;;;;;;;;;;5102820;28;20392;-67
2021/11/28 12:28:59;;;;;;;;;;;;;;;;;;5102770;28;20015;-67
2021/11/28 12:31:27;;;;;;;;;;;;;;;;;;5104931;28;20283;-66
2021/11/28 12:33:54;;;;;;;;;;;;;;;;;;5103233;28;19924;-66
2021/11/28 12:36:21;;;;;;;;;;;;;;;;;;5105735;28;20020;-67
2021/11/28 12:38:48;;;;;;;;;;;;;;;;;;5103566;28;19935;-68
2021/11/28 12:41:15;;;;;;;;;;;;;;;;;;5105785;28;19971;-65
2021/11/28 12:43:42;;;;;;;;;;;;;;;;;;5101739;28;19944;-67
2021/11/28 12:46:09;;;;;;;;;;;;;;;;;;5105532;28;20026;-66
2021/11/28 12:48:36;;;;;;;;;;;;;;;;;;5105803;28;19946;-67
2021/11/28 12:51:02;;;;;;;;;;;;;;;;;;5102378;28;20065;-68
2021/11/28 12:53:29;;;;;;;;;;;;;;;;;;5102566;28;20306;-67
2021/11/28 12:55:56;;;;;;;;;;;;;;;;;;5105336;28;19924;-67
2021/11/28 12:58:23;;;;;;;;;;;;;;;;;;5106771;28;19923;-67
2021/11/28 13:00:50;;;;;;;;;;;;;;;;;;5102248;28;20457;-68
2021/11/28 13:03:17;;;;;;;;;;;;;;;;;;5104811;28;19928;-67
2021/11/28 13:05:44;;;;;;;;;;;;;;;;;;5105018;28;19924;-67
2021/11/28 13:08:11;;;;;;;;;;;;;;;;;;5099914;28;20355;-67
2021/11/28 13:10:38;;;;;;;;;;;;;;;;;;5100607;28;19973;-66
2021/11/28 13:13:05;;;;;;;;;;;;;;;;;;5102164;28;19924;-67
2021/11/28 13:15:32;;;;;;;;;;;;;;;;;;5101725;28;20307;-67
2021/11/28 13:17:59;;;;;;;;;;;;;;;;;;5103867;28;20467;-67
2021/11/28 13:20:26;;;;;;;;;;;;;;;;;;5101562;28;20022;-67
2021/11/28 13:22:53;;;;;;;;;;;;;;;;;;5106201;28;19927;-67
2021/11/28 13:25:20;;;;;;;;;;;;;;;;;;5107868;28;19955;-66
2021/11/28 13:27:50;;;;;;;;;;;;;;;;;;5104658;28;19932;-67
2021/11/28 13:30:19;;;;;;;;;;;;;;;;;;5104731;28;19974;-67
2021/11/28 13:32:47;;;;;;;;;;;;;;;;;;5102066;28;20034;-68
2021/11/28 13:35:14;;;;;;;;;;;;;;;;;;5106366;28;19930;-68
2021/11/28 13:37:42;;;;;;;;;;;;;;;;;;5105015;28;21418;-68
2021/11/28 13:40:11;;;;;;;;;;;;;;;;;;5100506;28;19930;-68
2021/11/28 13:42:38;;;;;;;;;;;;;;;;;;5101461;28;20383;-68
2021/11/28 13:45:05;;;;;;;;;;;;;;;;;;5103564;28;19924;-68
2021/11/28 13:47:32;;;;;;;;;;;;;;;;;;5095568;22;19925;-68
2021/11/28 13:49:59;;;;;;;;;;;;;;;;;;5070992;28;19968;-68
2021/11/28 13:52:26;;;;;;;;;;;;;;;;;;5071606;28;19931;-66
2021/11/28 13:54:53;;;;;;;;;;;;;;;;;;5072031;28;19924;-67
2021/11/28 13:57:21;;;;;;;;;;;;;;;;;;5069747;28;19931;-67
2021/11/28 13:59:48;;;;;;;;;;;;;;;;;;5063762;28;19928;-68
2021/11/28 14:02:15;;;;;;;;;;;;;;;;;;5070598;28;20011;-67
2021/11/28 14:04:42;;;;;;;;;;;;;;;;;;5067088;28;19928;-66
2021/11/28 14:07:09;;;;;;;;;;;;;;;;;;5067925;28;19947;-67
2021/11/28 14:09:36;;;;;;;;;;;;;;;;;;5064490;28;19925;-67
2021/11/28 14:12:03;;;;;;;;;;;;;;;;;;5061700;28;20296;-68
2021/11/28 14:14:30;;;;;;;;;;;;;;;;;;5065726;28;19972;-65
2021/11/28 14:16:57;;;;;;;;;;;;;;;;;;5067460;28;20220;-68
2021/11/28 14:19:24;;;;;;;;;;;;;;;;;;5067897;28;20426;-66
2021/11/28 14:21:51;;;;;;;;;;;;;;;;;;5068022;28;19924;-68
2021/11/28 14:24:18;;;;;;;;;;;;;;;;;;5063526;28;19925;-66
2021/11/28 14:26:45;;;;;;;;;;;;;;;;;;5069383;28;20307;-65
2021/11/28 14:29:12;;;;;;;;;;;;;;;;;;5064983;28;19932;-66
2021/11/28 14:31:39;;;;;;;;;;;;;;;;;;5067129;28;20291;-66
2021/11/28 14:34:06;;;;;;;;;;;;;;;;;;5067516;28;19932;-66
2021/11/28 14:36:33;;;;;;;;;;;;;;;;;;5070549;28;20441;-65
2021/11/28 14:39:00;;;;;;;;;;;;;;;;;;5064529;28;19943;-66
2021/11/28 14:41:27;;;;;;;;;;;;;;;;;;5064890;28;19924;-67
2021/11/28 14:43:54;;;;;;;;;;;;;;;;;;5065319;28;19938;-64
2021/11/28 14:46:23;;;;;;;;;;;;;;;;;;5069134;28;20291;-67
2021/11/28 14:48:53;;;;;;;;;;;;;;;;;;5063694;28;20400;-66
2021/11/28 14:51:20;;;;;;;;;;;;;;;;;;5061965;28;19960;-66
2021/11/28 14:53:47;;;;;;;;;;;;;;;;;;5063217;28;20663;-66
2021/11/28 14:56:14;;;;;;;;;;;;;;;;;;5062830;28;19932;-66
2021/11/28 14:58:41;;;;;;;;;;;;;;;;;;5064324;28;19925;-65
2021/11/28 15:01:08;;;;;;;;;;;;;;;;;;5065463;28;20007;-67
2021/11/28 15:03:35;;;;;;;;;;;;;;;;;;5063805;28;19947;-66
2021/11/28 15:06:02;;;;;;;;;;;;;;;;;;5068737;28;19928;-65
2021/11/28 15:08:29;;;;;;;;;;;;;;;;;;5065729;28;20285;-64
2021/11/28 15:10:56;;;;;;;;;;;;;;;;;;5065242;28;20015;-65
2021/11/28 15:13:23;;;;;;;;;;;;;;;;;;5065552;28;19935;-66
2021/11/28 15:15:50;;;;;;;;;;;;;;;;;;5068556;28;20277;-67
2021/11/28 15:18:17;;;;;;;;;;;;;;;;;;5068357;28;19925;-67
2021/11/28 15:20:44;;;;;;;;;;;;;;;;;;5067118;28;19924;-67
2021/11/28 15:23:11;;;;;;;;;;;;;;;;;;5066376;28;20015;-66
2021/11/28 15:25:38;;;;;;;;;;;;;;;;;;5067223;28;19937;-66
2021/11/28 15:28:05;;;;;;;;;;;;;;;;;;5064319;28;19931;-64
2021/11/28 15:30:32;;;;;;;;;;;;;;;;;;5068132;28;19986;-66
2021/11/28 15:32:59;;;;;;;;;;;;;;;;;;5070740;28;19929;-66
2021/11/28 15:35:27;;;;;;;;;;;;;;;;;;5069711;28;20396;-67
2021/11/28 15:37:54;;;;;;;;;;;;;;;;;;5069556;28;19977;-69
2021/11/28 15:40:24;;;;;;;;;;;;;;;;;;5065506;28;20011;-67
2021/11/28 15:42:51;;;;;;;;;;;;;;;;;;5066119;28;19970;-66
2021/11/28 15:45:18;;;;;;;;;;;;;;;;;;5067477;28;20367;-67
2021/11/28 15:47:45;;;;;;;;;;;;;;;;;;5067852;28;19983;-68
2021/11/28 15:50:12;;;;;;;;;;;;;;;;;;5067596;28;20396;-67
2021/11/28 15:52:41;;;;;;;;;;;;;;;;;;5066295;28;19935;-64
2021/11/28 15:55:09;;;;;;;;;;;;;;;;;;5063861;28;19924;-65
2021/11/28 15:57:36;;;;;;;;;;;;;;;;;;5066365;28;20363;-65
2021/11/28 16:00:03;;;;;;;;;;;;;;;;;;5063037;28;19980;-66
2021/11/28 16:02:30;;;;;;;;;;;;;;;;;;5065839;28;20023;-65
2021/11/28 16:04:57;;;;;;;;;;;;;;;;;;5065831;28;19929;-65
2021/11/28 16:07:24;;;;;;;;;;;;;;;;;;5065118;28;20437;-64
2021/11/28 16:09:51;;;;;;;;;;;;;;;;;;5061886;28;19931;-66